Time;durP1;ratioP1;P1;durP2;ratioP2;P2;SDS_P1;SDS_P2;PMS_P1;PMS_P2;Temp;Humidity;BMP_temperature;BMP_pressure;BME280_temperature;BME280_humidity;BME280_pressure;Samples;Min_cycle;Max_cycle;Signal;HPM_P1;HPM_P2
2023/01/25 00:02:00;;;;;;;40.50;17.75;;;1.50;99.90;;;;;;5115916;28;20092;-82
2023/01/25 00:04:25;;;;;;;40.97;17.25;;;1.70;99.90;;;;;;5132704;28;20046;-81
2023/01/25 00:06:51;;;;;;;40.78;16.95;;;1.30;99.90;;;;;;5132774;28;20040;-82
2023/01/25 00:09:17;;;;;;;40.13;17.33;;;1.70;99.90;;;;;;5132805;28;20067;-82
2023/01/25 00:11:43;;;;;;;41.28;16.92;;;1.10;99.90;;;;;;5116744;27;20104;-81
2023/01/25 00:14:10;;;;;;;42.53;17.98;;;0.90;99.90;;;;;;5136759;27;20088;-81
2023/01/25 00:16:37;;;;;;;39.13;16.42;;;1.00;99.90;;;;;;5102445;27;20031;-81
2023/01/25 00:19:03;;;;;;;37.08;16.08;;;0.90;99.90;;;;;;5119483;27;20371;-81
2023/01/25 00:21:29;;;;;;;38.95;17.65;;;1.30;99.90;;;;;;5119314;27;20047;-82
2023/01/25 00:23:55;;;;;;;40.75;17.65;;;0.90;99.90;;;;;;5136050;27;20510;-81
2023/01/25 00:26:21;;;;;;;37.67;16.60;;;1.80;99.90;;;;;;5136307;27;20054;-82
2023/01/25 00:28:51;;;;;;;41.45;17.63;;;0.90;99.90;;;;;;5119347;27;20068;-82
2023/01/25 00:31:54;;;;;;;40.97;17.42;;;0.90;99.90;;;;;;5136412;27;20035;-82
2023/01/25 00:34:22;;;;;;;40.72;17.17;;;0.90;99.90;;;;;;5136392;27;20122;-80
2023/01/25 00:37:11;;;;;;;41.10;17.42;;;0.80;99.90;;;;;;5136168;27;20475;-81
2023/01/25 00:39:38;;;;;;;46.15;17.73;;;0.80;99.90;;;;;;5135831;27;20047;-81
2023/01/25 00:42:04;;;;;;;41.92;17.52;;;0.70;99.90;;;;;;5119314;27;20045;-83
2023/01/25 00:44:30;;;;;;;41.88;17.63;;;0.70;99.90;;;;;;5135979;27;20043;-82
2023/01/25 00:46:56;;;;;;;45.45;18.13;;;0.70;99.90;;;;;;5136040;27;20050;-81
2023/01/25 00:49:24;;;;;;;39.92;17.15;;;0.70;99.90;;;;;;5118920;27;20051;-82
2023/01/25 00:51:51;;;;;;;43.67;17.83;;;0.70;99.90;;;;;;5118964;27;20043;-81
2023/01/25 00:54:18;;;;;;;46.15;18.33;;;1.60;99.90;;;;;;5118949;27;20051;-82
2023/01/25 00:56:44;;;;;;;41.28;17.80;;;1.20;99.90;;;;;;5135572;27;20534;-82
2023/01/25 00:59:11;;;;;;;47.88;19.15;;;0.70;99.90;;;;;;5136028;27;20378;-82
2023/01/25 01:01:39;;;;;;;38.95;16.23;;;1.50;99.90;;;;;;5118675;27;20035;-82
2023/01/25 01:04:04;;;;;;;45.92;19.05;;;1.50;99.90;;;;;;5118750;27;20371;-81
2023/01/25 01:06:30;;;;;;;46.85;18.90;;;1.50;99.90;;;;;;5118442;27;20056;-82
2023/01/25 01:08:56;;;;;;;52.88;20.15;;;0.60;99.90;;;;;;5101675;27;20042;-81
2023/01/25 01:11:21;;;;;;;51.47;20.30;;;0.50;99.90;;;;;;5101483;27;20043;-82
2023/01/25 01:13:47;;;;;;;48.00;19.35;;;1.10;99.90;;;;;;5101454;27;20039;-81
2023/01/25 01:16:13;;;;;;;52.15;20.17;;;1.10;99.90;;;;;;5118092;27;20038;-82
2023/01/25 01:18:41;;;;;;;44.20;19.35;;;0.50;99.90;;;;;;5135568;27;20046;-82
2023/01/25 01:21:08;;;;;;;50.05;20.65;;;1.30;99.90;;;;;;5135531;27;20089;-81
2023/01/25 01:23:34;;;;;;;48.03;18.30;;;0.50;99.90;;;;;;5099838;27;20100;-82
2023/01/25 01:26:02;;;;;;;48.95;19.45;;;1.40;99.90;;;;;;5135435;27;20459;-82
2023/01/25 01:28:29;;;;;;;50.00;19.52;;;0.90;99.90;;;;;;5118037;27;20092;-84
2023/01/25 01:31:03;;;;;;;47.97;18.33;;;1.10;99.90;;;;;;5135283;27;20239;-82
2023/01/25 01:33:29;;;;;;;48.53;19.00;;;0.40;99.90;;;;;;5100583;27;20079;-86
2023/01/25 01:35:55;;;;;;;48.67;18.83;;;0.40;99.90;;;;;;5101286;27;20074;-81
2023/01/25 01:38:20;;;;;;;44.85;16.13;;;0.50;99.90;;;;;;5134714;27;20081;-81
2023/01/25 01:40:47;;;;;;;45.33;19.23;;;0.30;99.90;;;;;;5134918;27;20046;-83
2023/01/25 01:43:23;;;;;;;44.50;17.38;;;0.30;99.90;;;;;;5117816;27;20046;-82
2023/01/25 01:45:56;;;;;;;46.50;17.95;;;0.30;99.90;;;;;;5134873;27;20420;-82
2023/01/25 01:48:42;;;;;;;46.38;18.13;;;0.30;99.90;;;;;;5135021;27;20082;-82
2023/01/25 01:51:11;;;;;;;50.45;19.48;;;0.30;99.90;;;;;;5117585;27;20183;-81
2023/01/25 01:53:39;;;;;;;44.95;19.08;;;0.20;99.90;;;;;;5134626;27;20035;-81
2023/01/25 01:56:12;;;;;;;49.58;19.50;;;0.70;99.90;;;;;;5117568;27;20317;-81
2023/01/25 01:58:39;;;;;;;46.38;18.63;;;0.30;99.90;;;;;;5117615;27;20427;-82
2023/01/25 02:01:05;;;;;;;49.58;19.75;;;0.90;99.90;;;;;;5117673;27;20486;-81
2023/01/25 02:03:32;;;;;;;52.38;19.35;;;1.10;99.90;;;;;;5117524;27;20043;-82
2023/01/25 02:06:09;;;;;;;50.20;18.80;;;0.90;99.90;;;;;;5117349;27;20095;-82
2023/01/25 02:08:35;;;;;;;50.83;19.38;;;0.30;99.90;;;;;;5134394;27;20041;-81
2023/01/25 02:11:03;;;;;;;51.10;19.15;;;1.20;99.90;;;;;;5100401;27;20151;-82
2023/01/25 02:13:30;;;;;;;51.88;19.75;;;0.30;99.90;;;;;;5117635;27;20137;-82
2023/01/25 02:15:56;;;;;;;56.50;20.77;;;0.60;99.90;;;;;;5117143;27;20111;-82
2023/01/25 02:18:23;;;;;;;54.70;21.13;;;1.10;99.90;;;;;;5134175;27;20475;-82
2023/01/25 02:20:55;;;;;;;55.97;21.40;;;1.00;99.90;;;;;;5134094;27;20045;-81
2023/01/25 02:23:33;;;;;;;60.38;23.05;;;1.10;99.90;;;;;;5116838;27;20047;-82
2023/01/25 02:26:02;;;;;;;48.42;20.65;;;0.30;99.90;;;;;;5134057;27;20121;-82
2023/01/25 02:28:30;;;;;;;54.80;21.90;;;0.50;99.90;;;;;;5134099;27;20466;-81
2023/01/25 02:30:56;;;;;;;52.00;21.15;;;0.80;99.90;;;;;;5133960;27;20292;-82
2023/01/25 02:33:26;;;;;;;57.67;20.63;;;0.50;99.90;;;;;;5117092;27;20038;-81
2023/01/25 02:36:07;;;;;;;52.58;19.88;;;0.60;99.90;;;;;;5116614;27;20050;-82
2023/01/25 02:38:36;;;;;;;57.97;21.20;;;0.30;99.90;;;;;;5133938;27;20042;-82
2023/01/25 02:41:14;;;;;;;53.50;20.50;;;1.20;99.90;;;;;;5116668;27;20054;-82
2023/01/25 02:43:40;;;;;;;51.83;19.77;;;0.40;99.90;;;;;;5133773;27;20035;-81
2023/01/25 02:46:14;;;;;;;57.88;20.70;;;1.40;99.90;;;;;;5133820;27;20045;-82
2023/01/25 02:48:40;;;;;;;54.40;20.58;;;1.30;99.90;;;;;;5133573;27;20471;-82
2023/01/25 02:51:07;;;;;;;56.63;21.30;;;0.30;99.90;;;;;;5099626;27;20050;-82
2023/01/25 02:53:33;;;;;;;58.22;22.02;;;0.30;99.90;;;;;;5116250;27;20049;-82
2023/01/25 02:55:59;;;;;;;56.22;20.33;;;1.10;99.90;;;;;;5133236;27;20039;-81
2023/01/25 02:58:25;;;;;;;53.33;18.52;;;1.00;99.90;;;;;;5133278;27;20050;-82
2023/01/25 03:00:51;;;;;;;51.38;19.45;;;1.00;99.90;;;;;;5133134;27;20047;-82
2023/01/25 03:03:16;;;;;;;56.80;21.58;;;0.20;99.90;;;;;;5116475;27;20039;-82
2023/01/25 03:05:43;;;;;;;55.08;20.92;;;0.80;99.90;;;;;;5116134;27;20055;-82
2023/01/25 03:08:08;;;;;;;54.63;19.35;;;0.20;99.90;;;;;;5116361;27;20409;-80
2023/01/25 03:10:34;;;;;;;55.55;19.90;;;0.20;99.90;;;;;;5116272;27;20034;-82
2023/01/25 03:13:00;;;;;;;58.42;20.25;;;0.90;99.90;;;;;;5116146;27;20098;-80
2023/01/25 03:15:26;;;;;;;50.88;19.85;;;0.30;99.90;;;;;;5133285;27;20046;-81
2023/01/25 03:17:54;;;;;;;52.78;19.58;;;0.10;99.90;;;;;;5115831;27;20043;-81
2023/01/25 03:20:19;;;;;;;48.10;18.52;;;1.20;99.90;;;;;;5123660;27;20042;-81
2023/01/25 03:22:45;;;;;;;47.15;17.98;;;0.10;99.90;;;;;;5112512;28;20039;-80
2023/01/25 03:25:11;;;;;;;53.33;19.90;;;0.50;99.90;;;;;;5131817;27;20095;-81
2023/01/25 03:27:36;;;;;;;58.50;21.45;;;0.10;99.90;;;;;;5098940;27;20047;-81
2023/01/25 03:30:03;;;;;;;60.03;21.33;;;0.10;99.90;;;;;;5115961;28;20050;-81
2023/01/25 03:32:28;;;;;;;55.33;20.38;;;0.10;99.90;;;;;;5116023;28;20035;-80
2023/01/25 03:34:54;;;;;;;52.30;18.58;;;0.10;99.90;;;;;;5132951;28;20088;-80
2023/01/25 03:37:20;;;;;;;59.13;21.60;;;0.00;99.90;;;;;;5132756;28;20352;-80
2023/01/25 03:39:46;;;;;;;59.63;21.80;;;0.00;99.90;;;;;;5133010;28;20378;-81
2023/01/25 03:42:12;;;;;;;60.03;21.10;;;0.10;99.90;;;;;;5115753;28;20116;-81
2023/01/25 03:44:38;;;;;;;62.78;22.48;;;0.10;99.90;;;;;;5115885;28;20093;-81
2023/01/25 03:47:03;;;;;;;58.70;22.00;;;0.10;99.90;;;;;;5100528;27;20512;-81
2023/01/25 03:49:29;;;;;;;66.05;23.90;;;0.10;99.90;;;;;;5137210;27;20054;-81
2023/01/25 03:51:56;;;;;;;62.90;24.02;;;0.10;99.90;;;;;;5137136;27;20086;-81
2023/01/25 03:54:22;;;;;;;60.13;22.52;;;0.10;99.90;;;;;;5137240;27;20185;-81
2023/01/25 03:56:48;;;;;;;61.58;22.25;;;1.10;99.90;;;;;;5136893;27;20050;-84
2023/01/25 03:59:14;;;;;;;62.88;23.90;;;0.60;99.90;;;;;;5102931;27;20039;-82
2023/01/25 04:01:39;;;;;;;59.72;23.10;;;0.10;99.90;;;;;;5085886;27;20039;-80
2023/01/25 04:04:05;;;;;;;61.65;22.63;;;0.20;99.90;;;;;;5119651;27;20054;-81
2023/01/25 04:06:31;;;;;;;66.85;24.33;;;0.10;99.90;;;;;;5102856;27;20043;-81
2023/01/25 04:08:56;;;;;;;62.47;23.52;;;1.00;99.90;;;;;;5119662;27;20463;-81
2023/01/25 04:11:22;;;;;;;62.53;21.40;;;0.30;99.90;;;;;;5119621;27;20041;-81
2023/01/25 04:13:48;;;;;;;67.10;24.00;;;0.60;99.90;;;;;;5102746;27;20482;-82
2023/01/25 04:16:14;;;;;;;63.45;23.40;;;0.30;99.90;;;;;;5119189;27;20575;-82
2023/01/25 04:18:39;;;;;;;68.57;23.60;;;0.90;99.90;;;;;;5136784;27;20039;-81
2023/01/25 04:21:05;;;;;;;64.95;23.70;;;0.30;99.90;;;;;;5085445;27;20375;-82
2023/01/25 04:23:31;;;;;;;67.50;24.60;;;0.30;99.90;;;;;;5136303;27;20123;-81
2023/01/25 04:26:04;;;;;;;62.95;23.23;;;0.10;99.90;;;;;;5136472;27;20082;-82
2023/01/25 04:28:31;;;;;;;69.88;24.90;;;0.10;99.90;;;;;;5119474;27;20079;-81
2023/01/25 04:30:57;;;;;;;64.70;23.75;;;0.10;99.90;;;;;;5119736;27;20050;-81
2023/01/25 04:33:24;;;;;;;66.72;23.95;;;0.90;99.90;;;;;;5119282;27;20099;-82
2023/01/25 04:35:50;;;;;;;64.30;23.80;;;0.10;99.90;;;;;;5136413;27;20485;-82
2023/01/25 04:38:16;;;;;;;63.83;23.23;;;0.70;99.90;;;;;;5101865;27;20047;-82
2023/01/25 04:40:43;;;;;;;63.78;21.00;;;0.80;99.90;;;;;;5119027;27;20379;-81
2023/01/25 04:43:11;;;;;;;63.97;23.08;;;0.50;99.90;;;;;;5136337;27;20438;-80
2023/01/25 04:45:37;;;;;;;64.15;22.85;;;0.50;99.90;;;;;;5136564;27;20184;-80
2023/01/25 04:48:05;;;;;;;62.72;23.40;;;0.30;99.90;;;;;;5136437;27;20092;-81
2023/01/25 04:50:31;;;;;;;61.20;21.60;;;0.00;99.90;;;;;;5136211;27;20042;-80
2023/01/25 04:52:56;;;;;;;66.53;23.52;;;0.00;99.90;;;;;;5135966;27;20057;-84
2023/01/25 04:55:22;;;;;;;60.60;21.38;;;0.20;99.90;;;;;;5135977;27;20475;-82
2023/01/25 04:57:49;;;;;;;64.43;23.23;;;0.00;99.90;;;;;;5134700;27;20037;-81
2023/01/25 05:00:16;;;;;;;70.00;24.23;;;0.50;99.90;;;;;;5118108;27;20402;-81
2023/01/25 05:02:42;;;;;;;69.07;24.92;;;-0.10;99.90;;;;;;5118844;27;20060;-81
2023/01/25 05:05:09;;;;;;;69.38;24.35;;;0.60;99.90;;;;;;5101313;27;20043;-81
2023/01/25 05:07:34;;;;;;;61.83;23.77;;;-0.10;99.90;;;;;;5101775;27;20067;-80
2023/01/25 05:10:00;;;;;;;62.80;22.88;;;0.00;99.90;;;;;;5135566;27;20435;-81
2023/01/25 05:12:26;;;;;;;63.30;21.90;;;-0.10;99.90;;;;;;5135707;27;20092;-80
2023/01/25 05:14:51;;;;;;;59.33;21.65;;;-0.10;99.90;;;;;;5118474;27;20039;-80
2023/01/25 05:17:17;;;;;;;65.07;24.40;;;0.50;99.90;;;;;;5118169;27;20061;-80
2023/01/25 05:19:43;;;;;;;64.38;22.35;;;-0.20;99.90;;;;;;5135539;27;20050;-81
2023/01/25 05:22:14;;;;;;;64.85;23.58;;;-0.20;99.90;;;;;;5135387;27;20040;-81
2023/01/25 05:24:40;;;;;;;65.82;23.50;;;-0.20;99.90;;;;;;5117853;27;20086;-81
2023/01/25 05:27:07;;;;;;;63.83;23.52;;;-0.20;99.90;;;;;;5100738;27;20054;-81
2023/01/25 05:29:39;;;;;;;67.20;24.77;;;0.60;99.90;;;;;;5135207;27;20390;-80
2023/01/25 05:32:19;;;;;;;66.70;23.52;;;-0.20;99.90;;;;;;5134880;27;20039;-81
2023/01/25 05:34:45;;;;;;;67.07;24.53;;;-0.20;99.90;;;;;;5135352;27;20042;-81
2023/01/25 05:37:17;;;;;;;69.43;24.30;;;-0.20;99.90;;;;;;5117680;27;20301;-79
2023/01/25 05:39:43;;;;;;;70.35;24.27;;;-0.20;99.90;;;;;;5135282;27;20035;-80
2023/01/25 05:42:17;;;;;;;69.85;24.30;;;-0.20;99.90;;;;;;5134713;27;20106;-81
2023/01/25 05:44:43;;;;;;;72.28;24.63;;;-0.20;99.90;;;;;;5117936;27;20039;-81
2023/01/25 05:47:14;;;;;;;60.17;20.73;;;0.10;99.90;;;;;;5117397;27;20051;-80
2023/01/25 05:49:40;;;;;;;73.63;26.08;;;0.20;99.90;;;;;;5117928;27;20604;-82
2023/01/25 05:52:06;;;;;;;76.20;25.42;;;-0.20;99.90;;;;;;5134727;27;20080;-80
2023/01/25 05:54:31;;;;;;;73.40;25.80;;;-0.20;99.90;;;;;;5134995;27;20390;-80
2023/01/25 05:56:57;;;;;;;73.93;26.67;;;0.70;99.90;;;;;;5117658;27;20039;-81
2023/01/25 05:59:23;;;;;;;71.18;24.63;;;-0.30;99.90;;;;;;5117519;27;20038;-80
2023/01/25 06:01:48;;;;;;;73.22;25.35;;;0.70;99.90;;;;;;5100653;27;20432;-80
2023/01/25 06:04:15;;;;;;;70.45;24.00;;;0.50;99.90;;;;;;5100492;27;20057;-80
2023/01/25 06:06:41;;;;;;;75.50;25.25;;;-0.20;99.90;;;;;;5117396;27;20471;-81
2023/01/25 06:09:08;;;;;;;78.95;26.13;;;0.70;99.90;;;;;;5099795;27;20039;-84
2023/01/25 06:11:34;;;;;;;74.00;25.70;;;-0.20;99.90;;;;;;5117417;27;20081;-81
2023/01/25 06:14:00;;;;;;;72.45;25.58;;;-0.30;99.90;;;;;;5117284;27;20082;-80
2023/01/25 06:16:26;;;;;;;73.70;25.48;;;-0.10;99.90;;;;;;5134175;27;20482;-80
2023/01/25 06:18:52;;;;;;;72.43;25.65;;;-0.30;99.90;;;;;;5100262;27;20039;-80
2023/01/25 06:21:18;;;;;;;71.15;25.58;;;-0.30;99.90;;;;;;5117129;27;20039;-80
2023/01/25 06:23:43;;;;;;;80.55;27.42;;;0.20;99.90;;;;;;5116756;27;20058;-81
2023/01/25 06:26:12;;;;;;;73.80;27.05;;;-0.20;99.90;;;;;;5134167;27;20092;-85
2023/01/25 06:28:38;;;;;;;78.50;25.55;;;0.10;99.90;;;;;;5117127;27;20425;-80
2023/01/25 06:31:09;;;;;;;75.53;26.23;;;-0.20;99.90;;;;;;5133924;27;20427;-81
2023/01/25 06:33:35;;;;;;;77.00;27.05;;;-0.20;99.90;;;;;;5116622;27;20122;-81
2023/01/25 06:36:06;;;;;;;80.70;28.17;;;0.90;99.90;;;;;;5099833;27;20353;-81
2023/01/25 06:38:32;;;;;;;78.00;27.70;;;-0.20;99.90;;;;;;5116502;27;20054;-81
2023/01/25 06:41:03;;;;;;;84.63;29.23;;;-0.20;99.90;;;;;;5116873;27;20043;-81
2023/01/25 06:43:30;;;;;;;84.53;30.17;;;-0.20;99.90;;;;;;5133685;27;20031;-80
2023/01/25 06:46:05;;;;;;;87.10;29.60;;;-0.20;99.90;;;;;;5133857;27;20070;-81
2023/01/25 06:48:32;;;;;;;79.72;28.15;;;-0.10;99.90;;;;;;5133645;27;20184;-81
2023/01/25 06:51:03;;;;;;;86.82;28.77;;;-0.20;99.90;;;;;;5133774;27;20543;-80
2023/01/25 06:53:31;;;;;;;;;;;-0.20;99.90;;;;;;5134042;27;20046;-80
2023/01/25 06:56:02;;;;;;;78.15;27.52;;;-0.20;99.90;;;;;;5116610;27;20006;-81
2023/01/25 06:58:29;;;;;;;62.75;21.50;;;-0.20;99.90;;;;;;5133182;27;20382;-81
2023/01/25 07:01:19;;;;;;;72.35;25.00;;;0.80;99.90;;;;;;5116532;27;20042;-81
2023/01/25 07:03:54;;;;;;;69.40;23.60;;;0.40;99.90;;;;;;5115437;27;20133;-81
2023/01/25 07:06:21;;;;;;;79.38;27.63;;;-0.30;99.90;;;;;;5116237;27;20039;-81
2023/01/25 07:08:47;;;;;;;76.82;24.67;;;0.00;99.90;;;;;;5133523;27;20039;-81
2023/01/25 07:11:13;;;;;;;68.63;23.02;;;0.60;99.90;;;;;;5133397;27;20046;-81
2023/01/25 07:13:46;;;;;;;78.93;26.85;;;-0.40;99.90;;;;;;5116152;28;20043;-82
2023/01/25 07:16:15;;;;;;;75.82;27.33;;;-0.40;99.90;;;;;;5116374;27;20047;-80
2023/01/25 07:18:41;;;;;;;73.38;25.77;;;0.30;99.90;;;;;;5116045;27;20047;-79
2023/01/25 07:21:10;;;;;;;69.82;23.85;;;0.00;99.90;;;;;;5115385;28;20039;-81
2023/01/25 07:23:37;;;;;;;72.50;25.90;;;-0.40;99.90;;;;;;5132746;27;20065;-81
2023/01/25 07:26:04;;;;;;;68.88;23.33;;;0.20;99.90;;;;;;5112569;28;20043;-80
2023/01/25 07:28:31;;;;;;;81.38;27.60;;;-0.40;99.90;;;;;;5129611;27;20180;-81
2023/01/25 07:31:06;;;;;;;74.80;26.40;;;-0.40;99.90;;;;;;5095686;28;20099;-83
2023/01/25 07:33:33;;;;;;;70.97;24.17;;;-0.40;99.90;;;;;;5112382;28;20047;-82
2023/01/25 07:36:06;;;;;;;75.05;26.05;;;-0.40;99.90;;;;;;5112204;28;20046;-81
2023/01/25 07:38:32;;;;;;;76.18;25.80;;;-0.40;99.90;;;;;;5078256;28;20418;-81
2023/01/25 07:40:58;;;;;;;75.15;24.77;;;-0.40;99.90;;;;;;5094660;28;20051;-81
2023/01/25 07:43:24;;;;;;;72.05;24.42;;;-0.40;99.90;;;;;;5076643;28;20044;-81
2023/01/25 07:45:50;;;;;;;74.28;25.23;;;-0.40;99.90;;;;;;5092443;28;20048;-81
2023/01/25 07:48:17;;;;;;;81.30;26.58;;;0.50;99.90;;;;;;4754968;28;10000617;-82
2023/01/25 07:51:09;;;;;;;76.05;25.27;;;0.50;99.90;;;;;;5092339;28;20039;-82
2023/01/25 07:53:34;;;;;;;78.55;28.45;;;0.50;99.90;;;;;;5092476;28;20464;-80
2023/01/25 07:56:00;;;;;;;77.32;25.50;;;-0.10;99.90;;;;;;5092335;28;20046;-81
2023/01/25 07:58:26;;;;;;;82.18;27.50;;;0.10;99.90;;;;;;5074945;28;20031;-82
2023/01/25 08:00:52;;;;;;;81.57;27.65;;;0.70;99.90;;;;;;5083360;28;20034;-82
2023/01/25 08:03:21;;;;;;;80.97;26.90;;;-0.30;99.90;;;;;;5092930;28;20040;-81
2023/01/25 08:05:47;;;;;;;79.75;25.63;;;-0.20;99.90;;;;;;5102696;28;20556;-82
2023/01/25 08:08:13;;;;;;;75.13;26.48;;;0.50;99.90;;;;;;5093849;28;20325;-83
2023/01/25 08:10:39;;;;;;;76.05;26.75;;;-0.30;99.90;;;;;;5113184;28;20466;-82
2023/01/25 08:13:05;;;;;;;73.80;24.95;;;0.50;99.90;;;;;;5113316;28;20046;-81
2023/01/25 08:15:31;;;;;;;78.57;25.58;;;-0.30;99.90;;;;;;5130181;28;20419;-81
2023/01/25 08:18:01;;;;;;;77.35;26.23;;;0.20;99.90;;;;;;5130136;28;20043;-81
2023/01/25 08:20:26;;;;;;;70.32;23.60;;;-0.30;99.90;;;;;;5129760;28;20039;-81
2023/01/25 08:22:52;;;;;;;71.13;23.45;;;-0.30;99.90;;;;;;5130008;27;20049;-81
2023/01/25 08:25:18;;;;;;;76.97;25.80;;;0.50;99.90;;;;;;5133718;27;20049;-82
2023/01/25 08:27:44;;;;;;;72.20;24.60;;;-0.30;99.90;;;;;;5133583;27;20463;-82
2023/01/25 08:30:11;;;;;;;69.30;24.50;;;0.70;99.90;;;;;;5099876;27;20047;-82
2023/01/25 08:32:37;;;;;;;68.20;25.77;;;-0.20;99.90;;;;;;5116895;27;20470;-82
2023/01/25 08:35:03;;;;;;;64.78;22.50;;;-0.30;99.90;;;;;;5137591;27;20070;-82
2023/01/25 08:37:29;;;;;;;58.70;23.08;;;-0.30;99.90;;;;;;5136821;27;20467;-81
2023/01/25 08:39:56;;;;;;;62.03;21.40;;;0.50;99.90;;;;;;5116371;27;20035;-81
2023/01/25 08:42:23;;;;;;;62.65;22.25;;;-0.40;99.90;;;;;;5137542;27;20047;-81
2023/01/25 08:44:48;;;;;;;50.45;15.60;;;0.70;99.90;;;;;;5136689;27;20458;-80
2023/01/25 08:47:14;;;;;;;65.25;23.10;;;0.20;99.90;;;;;;5119417;27;20518;-81
2023/01/25 08:49:40;;;;;;;72.95;23.65;;;-0.40;99.90;;;;;;5120159;27;20034;-81
2023/01/25 08:52:06;;;;;;;62.70;22.40;;;0.50;99.90;;;;;;5120156;27;20098;-81
2023/01/25 08:54:31;;;;;;;60.92;22.23;;;0.60;99.90;;;;;;5120109;27;20049;-81
2023/01/25 08:56:57;;;;;;;56.97;19.27;;;-0.40;99.90;;;;;;5102609;27;20450;-80
2023/01/25 08:59:23;;;;;;;61.42;22.63;;;0.20;99.90;;;;;;5137308;27;20058;-81
2023/01/25 09:01:49;;;;;;;63.30;22.90;;;0.40;99.90;;;;;;5119910;27;20035;-80
2023/01/25 09:04:14;;;;;;;62.88;23.50;;;0.40;99.90;;;;;;5137138;27;20038;-82
2023/01/25 09:06:40;;;;;;;61.53;22.73;;;0.20;99.90;;;;;;5102769;27;20043;-81
2023/01/25 09:09:07;;;;;;;64.13;22.20;;;-0.30;99.90;;;;;;5119463;27;20069;-81
2023/01/25 09:11:35;;;;;;;62.97;23.10;;;-0.30;99.90;;;;;;5136966;27;20078;-80
2023/01/25 09:14:01;;;;;;;50.67;17.55;;;-0.30;99.90;;;;;;5135690;27;20118;-80
2023/01/25 09:16:27;;;;;;;65.40;22.77;;;-0.30;99.90;;;;;;5119280;27;20478;-82
2023/01/25 09:18:56;;;;;;;66.47;23.92;;;0.00;99.90;;;;;;5119302;27;20035;-81
2023/01/25 09:21:22;;;;;;;60.40;21.17;;;-0.30;99.90;;;;;;5119503;27;20050;-82
2023/01/25 09:23:49;;;;;;;64.78;23.75;;;-0.30;99.90;;;;;;5118796;27;20043;-81
2023/01/25 09:26:16;;;;;;;62.03;20.63;;;0.40;99.90;;;;;;5119608;27;20042;-82
2023/01/25 09:28:45;;;;;;;62.25;21.98;;;0.70;99.90;;;;;;5136423;27;20117;-82
2023/01/25 09:31:11;;;;;;;61.75;22.48;;;0.80;99.90;;;;;;5136600;27;20471;-82
2023/01/25 09:33:38;;;;;;;63.55;22.60;;;-0.30;99.90;;;;;;5102106;27;20039;-82
2023/01/25 09:36:05;;;;;;;59.92;20.58;;;-0.30;99.90;;;;;;5136585;27;20042;-81
2023/01/25 09:38:31;;;;;;;59.92;22.08;;;-0.20;99.90;;;;;;5101947;27;20035;-82
2023/01/25 09:41:03;;;;;;;58.53;22.45;;;-0.30;99.90;;;;;;5136304;27;20039;-82
2023/01/25 09:43:32;;;;;;;61.28;22.13;;;-0.30;99.90;;;;;;5136161;27;20046;-82
2023/01/25 09:46:00;;;;;;;60.83;21.65;;;-0.30;99.90;;;;;;5135678;27;20065;-81
2023/01/25 09:48:49;;;;;;;65.65;23.38;;;-0.20;99.90;;;;;;5136366;27;20050;-81
2023/01/25 09:51:43;;;;;;;66.55;22.75;;;0.10;99.90;;;;;;5119097;27;20312;-81
2023/01/25 09:54:09;;;;;;;62.30;19.98;;;-0.30;99.90;;;;;;5135949;27;20390;-82
2023/01/25 09:56:37;;;;;;;66.43;23.20;;;-0.30;99.90;;;;;;5119014;27;20431;-81
2023/01/25 09:59:16;;;;;;;55.78;19.92;;;0.40;99.90;;;;;;5118993;27;20039;-82
2023/01/25 10:02:22;;;;;;;64.03;22.70;;;-0.30;99.90;;;;;;5135455;27;20125;-82
2023/01/25 10:04:51;;;;;;;62.95;21.02;;;-0.30;99.90;;;;;;5085726;27;20502;-81
2023/01/25 10:07:29;;;;;;;57.83;21.05;;;0.30;99.90;;;;;;5135887;27;20512;-82
2023/01/25 10:10:17;;;;;;;68.78;24.25;;;-0.20;99.90;;;;;;5135735;27;20035;-83
2023/01/25 10:12:43;;;;;;;68.68;22.98;;;0.50;99.90;;;;;;5135355;27;20539;-81
2023/01/25 10:15:18;;;;;;;53.65;19.15;;;-0.20;99.90;;;;;;5116801;27;20035;-81
2023/01/25 10:17:46;;;;;;;63.72;22.10;;;-0.20;99.90;;;;;;5135514;27;20039;-81
2023/01/25 10:20:18;;;;;;;60.65;22.25;;;-0.20;99.90;;;;;;5118199;27;20042;-82
2023/01/25 10:22:51;;;;;;;;;;;-0.20;99.90;;;;;;5135836;27;20038;-81
2023/01/25 10:25:50;;;;;;;53.20;18.35;;;-0.20;99.90;;;;;;5118314;27;19915;-82
2023/01/25 10:29:03;;;;;;;64.00;21.65;;;-0.30;99.90;;;;;;5118462;27;20129;-82
2023/01/25 10:31:54;;;;;;;52.70;19.95;;;-0.20;99.90;;;;;;5082053;27;20054;-83
2023/01/25 10:34:37;;;;;;;63.70;22.65;;;-0.30;99.90;;;;;;5135458;27;20083;-83
2023/01/25 10:37:29;;;;;;;62.65;20.45;;;0.40;99.90;;;;;;5134974;27;20436;-82
2023/01/25 10:40:16;;;;;;;60.42;21.08;;;-0.30;99.90;;;;;;5135086;27;20066;-81
2023/01/25 10:42:49;;;;;;;58.33;18.98;;;-0.30;99.90;;;;;;5118031;27;20043;-82
2023/01/25 10:45:16;;;;;;;51.03;17.42;;;-0.30;99.90;;;;;;5135359;27;20042;-82
2023/01/25 10:47:49;;;;;;;68.07;22.30;;;-0.30;99.90;;;;;;5114355;27;20043;-82
2023/01/25 10:50:39;;;;;;;66.90;22.73;;;-0.20;99.90;;;;;;5117301;27;20050;-82
2023/01/25 10:53:22;;;;;;;62.58;20.70;;;-0.20;99.90;;;;;;5123623;27;20043;-82
2023/01/25 10:56:09;;;;;;;57.08;19.75;;;-0.20;99.90;;;;;;5132529;27;20493;-81
2023/01/25 10:58:37;;;;;;;64.00;21.48;;;-0.30;99.90;;;;;;5134773;27;20616;-83
2023/01/25 11:01:09;;;;;;;74.72;25.98;;;0.10;99.90;;;;;;5134975;27;20359;-82
2023/01/25 11:03:38;;;;;;;73.97;25.65;;;0.60;99.90;;;;;;5117831;27;20043;-83
2023/01/25 11:06:04;;;;;;;73.38;24.42;;;0.50;99.90;;;;;;5117630;27;20610;-82
2023/01/25 11:08:30;;;;;;;65.95;22.77;;;0.10;99.90;;;;;;5117315;27;20068;-82
2023/01/25 11:10:56;;;;;;;72.05;25.02;;;0.90;99.90;;;;;;5117387;27;20047;-82
2023/01/25 11:13:32;;;;;;;69.18;26.75;;;0.70;99.90;;;;;;5100546;27;20051;-82
2023/01/25 11:16:00;;;;;;;66.15;21.77;;;-0.10;99.90;;;;;;5134571;27;20039;-81
2023/01/25 11:18:32;;;;;;;58.38;19.40;;;1.00;99.90;;;;;;5134244;27;20098;-82
2023/01/25 11:21:18;;;;;;;69.15;24.63;;;0.50;99.90;;;;;;5117032;27;20046;-82
2023/01/25 11:23:59;;;;;;;65.63;21.27;;;0.30;99.90;;;;;;5134085;27;20364;-81
2023/01/25 11:26:25;;;;;;;;;;;-0.20;99.90;;;;;;5134816;27;20142;-81
2023/01/25 11:29:18;;;;;;;51.67;18.63;;;-0.20;99.90;;;;;;5134541;27;20018;-82
2023/01/25 11:31:50;;;;;;;55.88;19.85;;;-0.20;99.90;;;;;;5117443;27;20042;-81
2023/01/25 11:34:23;;;;;;;53.55;18.23;;;-0.20;99.90;;;;;;5117219;27;20065;-81
2023/01/25 11:37:26;;;;;;;65.88;22.55;;;0.80;99.90;;;;;;5117282;27;20046;-81
2023/01/25 11:40:01;;;;;;;69.78;21.60;;;-0.20;99.90;;;;;;5077298;27;20057;-81
2023/01/25 11:42:45;;;;;;;63.65;21.25;;;-0.30;99.90;;;;;;5134189;27;20035;-81
2023/01/25 11:45:31;;;;;;;54.13;17.35;;;-0.20;99.90;;;;;;5133909;27;20035;-80
2023/01/25 11:47:57;;;;;;;62.17;19.35;;;-0.10;99.90;;;;;;5115941;27;20440;-82
2023/01/25 11:50:37;;;;;;;62.90;21.40;;;-0.20;99.90;;;;;;5116376;27;20047;-81
2023/01/25 11:53:28;;;;;;;66.32;21.10;;;-0.30;99.90;;;;;;5117014;27;20112;-82
2023/01/25 11:56:52;;;;;;;51.53;15.97;;;-0.20;99.90;;;;;;5116966;27;20049;-81
2023/01/25 11:59:40;;;;;;;54.47;16.92;;;-0.20;99.90;;;;;;5038124;28;20290;-80
2023/01/25 12:02:28;;;;;;;44.33;14.70;;;-0.30;99.90;;;;;;5111025;27;20199;-82
2023/01/25 12:05:16;;;;;;;39.42;14.07;;;-0.30;99.90;;;;;;5134037;27;20038;-81
2023/01/25 12:08:08;;;;;;;55.13;17.98;;;-0.30;99.90;;;;;;5135207;27;20355;-81
2023/01/25 12:10:53;;;;;;;65.10;21.15;;;0.60;99.90;;;;;;5103060;27;20050;-80
2023/01/25 12:13:39;;;;;;;59.90;20.52;;;-0.20;99.90;;;;;;5138340;27;20046;-82
2023/01/25 12:16:30;;;;;;;62.05;19.10;;;-0.20;99.90;;;;;;5138162;27;20074;-81
2023/01/25 12:19:02;;;;;;;53.55;16.77;;;-0.20;99.90;;;;;;5120957;27;20038;-81
2023/01/25 12:21:57;;;;;;;64.30;21.33;;;-0.30;99.90;;;;;;5120352;27;20137;-81
2023/01/25 12:24:36;;;;;;;60.47;20.35;;;-0.20;99.90;;;;;;5124615;27;20591;-82
2023/01/25 12:27:24;;;;;;;57.88;19.05;;;-0.10;99.90;;;;;;5132754;27;20050;-81
2023/01/25 12:30:10;;;;;;;65.93;21.55;;;-0.20;99.90;;;;;;5117238;27;20054;-81
2023/01/25 12:32:49;;;;;;;60.95;19.98;;;0.10;99.90;;;;;;5133787;27;20390;-81
2023/01/25 12:35:38;;;;;;;71.35;20.92;;;0.20;99.90;;;;;;5133488;27;20412;-81
2023/01/25 12:38:14;;;;;;;53.33;16.27;;;-0.10;99.90;;;;;;5133599;27;20042;-80
2023/01/25 12:40:51;;;;;;;62.78;19.80;;;0.80;99.90;;;;;;5116811;27;20476;-81
2023/01/25 12:43:43;;;;;;;66.00;21.38;;;-0.20;99.90;;;;;;5116729;27;20087;-81
2023/01/25 12:46:49;;;;;;;66.63;21.45;;;0.20;99.90;;;;;;5122410;27;20050;-80
2023/01/25 12:49:38;;;;;;;57.05;18.55;;;-0.10;99.90;;;;;;5117853;27;20039;-81
2023/01/25 12:52:21;;;;;;;61.08;20.20;;;-0.10;99.90;;;;;;5118810;27;20450;-81